createdAt,value
2023-09-02T00:00:17.642Z,60.47
2023-09-02T00:02:44.295Z,60.36
2023-09-02T00:05:11.082Z,60.50
2023-09-02T00:07:38.651Z,60.56
2023-09-02T00:10:06.454Z,60.60
2023-09-02T00:12:33.469Z,60.60
2023-09-02T00:15:00.124Z,60.73
2023-09-02T00:17:26.868Z,60.79
2023-09-02T00:19:53.657Z,60.72
2023-09-02T00:22:20.339Z,60.54
2023-09-02T00:24:46.996Z,60.57
2023-09-02T00:27:13.570Z,60.57
2023-09-02T00:29:40.227Z,60.55
2023-09-02T00:32:06.990Z,60.74
2023-09-02T00:34:34.302Z,60.64
2023-09-02T00:37:00.997Z,60.68
2023-09-02T00:39:27.856Z,60.94
2023-09-02T00:41:56.881Z,61.16
2023-09-02T00:44:23.607Z,61.06
2023-09-02T00:46:50.478Z,61.17
2023-09-02T00:49:17.078Z,61.11
2023-09-02T00:51:43.793Z,61.12
2023-09-02T00:54:10.424Z,61.21
2023-09-02T00:56:40.636Z,61.38
2023-09-02T00:59:07.984Z,61.26
2023-09-02T01:01:36.426Z,61.30
2023-09-02T01:04:05.011Z,61.08
2023-09-02T01:06:32.811Z,61.18
2023-09-02T01:09:01.077Z,61.34
2023-09-02T01:11:28.381Z,61.30
2023-09-02T01:13:55.071Z,61.50
2023-09-02T01:16:21.838Z,61.63
2023-09-02T01:18:48.617Z,61.56
2023-09-02T01:21:37.119Z,61.47
2023-09-02T01:24:38.778Z,61.69
2023-09-02T01:27:26.288Z,61.71
2023-09-02T01:30:15.872Z,61.88
2023-09-02T01:32:44.660Z,61.83
2023-09-02T01:35:17.443Z,61.78
2023-09-02T01:37:47.297Z,61.92
2023-09-02T01:40:23.153Z,61.83
2023-09-02T01:42:51.940Z,61.88
2023-09-02T01:45:20.561Z,61.86
2023-09-02T01:47:48.526Z,62.08
2023-09-02T01:50:22.453Z,62.09
2023-09-02T01:52:49.828Z,62.00
2023-09-02T01:55:17.264Z,62.12
2023-09-02T01:57:44.661Z,62.06
2023-09-02T02:00:12.332Z,62.15
2023-09-02T02:02:39.790Z,62.26
2023-09-02T02:05:08.039Z,62.36
2023-09-02T02:07:37.382Z,62.28
2023-09-02T02:10:11.878Z,62.40
2023-09-02T02:12:42.593Z,62.35
2023-09-02T02:15:12.788Z,62.47
2023-09-02T02:17:40.710Z,62.22
2023-09-02T02:20:10.547Z,62.23
2023-09-02T02:22:37.315Z,62.36
2023-09-02T02:25:04.995Z,62.34
2023-09-02T02:27:31.682Z,62.25
2023-09-02T02:30:00.135Z,62.39
2023-09-02T02:32:26.899Z,62.25
2023-09-02T02:34:55.224Z,62.51
2023-09-02T02:37:21.985Z,62.47
2023-09-02T02:39:48.702Z,62.51
2023-09-02T02:42:16.385Z,62.53
2023-09-02T02:44:43.113Z,62.37
2023-09-02T02:47:09.780Z,62.23
2023-09-02T02:49:36.406Z,62.10
2023-09-02T02:52:03.452Z,62.53
2023-09-02T02:54:30.376Z,62.58
2023-09-02T02:56:59.213Z,62.28
2023-09-02T02:59:25.846Z,62.40
2023-09-02T03:01:52.966Z,62.57
2023-09-02T03:04:19.626Z,62.44
2023-09-02T03:06:46.634Z,62.52
2023-09-02T03:09:13.332Z,62.59
2023-09-02T03:11:40.007Z,62.56
2023-09-02T03:14:06.713Z,62.43
2023-09-02T03:16:34.562Z,62.60
2023-09-02T03:19:01.168Z,62.57
2023-09-02T03:21:35.396Z,62.53
2023-09-02T03:24:02.844Z,62.49
2023-09-02T03:26:29.738Z,62.33
2023-09-02T03:28:56.527Z,62.39
2023-09-02T03:31:24.094Z,62.41
2023-09-02T03:33:50.745Z,62.72
2023-09-02T03:36:18.676Z,62.88
2023-09-02T03:38:46.140Z,62.95
2023-09-02T03:41:14.138Z,62.99
2023-09-02T03:43:40.790Z,62.96
2023-09-02T03:46:07.548Z,63.23
2023-09-02T03:48:34.834Z,63.20
2023-09-02T03:51:06.938Z,63.20
2023-09-02T03:53:36.200Z,63.28
2023-09-02T03:56:03.185Z,63.36
2023-09-02T03:58:31.733Z,63.38
2023-09-02T04:00:58.974Z,63.38
2023-09-02T04:03:28.250Z,63.40
2023-09-02T04:05:55.251Z,63.57
2023-09-02T04:08:24.514Z,63.50
2023-09-02T04:10:53.340Z,63.46
2023-09-02T04:13:29.066Z,63.55
2023-09-02T04:16:04.505Z,63.51
2023-09-02T04:18:33.920Z,63.41
2023-09-02T04:21:01.872Z,63.38
2023-09-02T04:23:28.966Z,63.50
2023-09-02T04:25:58.757Z,63.65
2023-09-02T04:28:25.611Z,63.92
2023-09-02T04:30:57.556Z,63.94
2023-09-02T04:33:26.063Z,64.16
2023-09-02T04:35:54.490Z,64.06
2023-09-02T04:38:21.597Z,64.13
2023-09-02T04:40:51.089Z,64.28
2023-09-02T04:43:18.668Z,64.16
2023-09-02T04:45:47.602Z,64.12
2023-09-02T04:48:15.640Z,64.26
2023-09-02T04:50:43.115Z,64.09
2023-09-02T04:53:11.040Z,64.12
2023-09-02T04:55:40.907Z,64.22
2023-09-02T04:58:10.035Z,64.51
2023-09-02T05:00:39.722Z,64.74
2023-09-02T05:03:07.192Z,64.55
2023-09-02T05:05:35.276Z,64.73
2023-09-02T05:08:02.197Z,64.78
2023-09-02T05:10:29.257Z,64.74
2023-09-02T05:12:56.202Z,64.66
2023-09-02T05:15:22.976Z,64.52
2023-09-02T05:17:53.632Z,64.42
2023-09-02T05:20:20.700Z,64.23
2023-09-02T05:22:47.421Z,64.10
2023-09-02T05:25:14.460Z,64.05
2023-09-02T05:27:42.638Z,64.29
2023-09-02T05:30:09.974Z,64.10
2023-09-02T05:32:36.649Z,64.44
2023-09-02T05:35:03.551Z,64.43
2023-09-02T05:37:30.247Z,64.39
2023-09-02T05:39:57.354Z,64.61
2023-09-02T05:42:23.990Z,64.52
2023-09-02T05:44:50.607Z,64.80
2023-09-02T05:47:17.264Z,64.60
2023-09-02T05:49:44.017Z,64.42
2023-09-02T05:52:10.683Z,64.52
2023-09-02T05:54:37.302Z,64.45
2023-09-02T05:57:04.275Z,64.31
2023-09-02T05:59:30.960Z,64.36
2023-09-02T06:01:59.772Z,64.33
2023-09-02T06:04:26.532Z,64.38
2023-09-02T06:06:53.205Z,64.37
2023-09-02T06:09:19.835Z,64.75
2023-09-02T06:11:46.530Z,64.88
2023-09-02T06:14:13.152Z,64.69
2023-09-02T06:16:39.770Z,64.68
2023-09-02T06:19:06.457Z,64.48
2023-09-02T06:21:33.127Z,64.57
2023-09-02T06:23:59.718Z,64.70
2023-09-02T06:26:26.990Z,64.92
2023-09-02T06:28:53.717Z,64.93
2023-09-02T06:31:20.496Z,64.69
2023-09-02T06:33:47.481Z,64.72
2023-09-02T06:36:17.747Z,64.52
2023-09-02T06:38:45.053Z,63.95
2023-09-02T06:41:16.692Z,63.54
2023-09-02T06:43:45.179Z,63.41
2023-09-02T06:46:15.161Z,63.12
2023-09-02T06:48:41.960Z,62.91
2023-09-02T06:51:08.854Z,62.12
2023-09-02T06:53:35.595Z,61.38
2023-09-02T06:56:03.128Z,61.13
2023-09-02T06:58:29.927Z,60.31
2023-09-02T07:00:56.686Z,59.82
2023-09-02T07:03:23.597Z,59.04
2023-09-02T07:05:50.506Z,58.51
2023-09-02T07:08:17.616Z,58.00
2023-09-02T07:10:44.378Z,57.56
2023-09-02T07:13:11.016Z,57.38
2023-09-02T07:15:38.035Z,57.36
2023-09-02T07:18:06.004Z,56.63
2023-09-02T07:20:37.829Z,56.34
2023-09-02T07:23:04.663Z,56.37
2023-09-02T07:25:31.326Z,55.57
2023-09-02T07:27:58.345Z,54.95
2023-09-02T07:30:25.308Z,54.38
2023-09-02T07:32:52.011Z,54.04
2023-09-02T07:35:18.794Z,53.62
2023-09-02T07:37:45.469Z,53.24
2023-09-02T07:40:12.580Z,52.95
2023-09-02T07:42:40.049Z,52.36
2023-09-02T07:45:07.363Z,52.14
2023-09-02T07:47:34.014Z,51.21
2023-09-02T07:50:00.690Z,50.19
2023-09-02T07:52:29.834Z,50.02
2023-09-02T07:54:56.415Z,49.63
2023-09-02T07:57:23.084Z,49.43
2023-09-02T07:59:49.821Z,49.51
2023-09-02T08:02:16.501Z,48.88
2023-09-02T08:04:43.196Z,48.35
2023-09-02T08:07:09.880Z,48.09
2023-09-02T08:09:36.528Z,48.32
2023-09-02T08:12:03.292Z,47.97
2023-09-02T08:14:30.126Z,47.79
2023-09-02T08:16:57.006Z,46.94
2023-09-02T08:19:23.749Z,46.21
2023-09-02T08:21:50.455Z,45.74
2023-09-02T08:24:17.254Z,45.94
2023-09-02T08:26:43.995Z,45.72
2023-09-02T08:29:10.794Z,45.08
2023-09-02T08:31:37.531Z,44.91
2023-09-02T08:34:04.183Z,44.70
2023-09-02T08:36:31.315Z,43.47
2023-09-02T08:38:58.071Z,43.29
2023-09-02T08:41:31.458Z,42.74
2023-09-02T08:44:02.542Z,42.22
2023-09-02T08:46:32.232Z,42.34
2023-09-02T08:48:59.758Z,42.02
2023-09-02T08:51:28.386Z,42.12
2023-09-02T08:53:57.125Z,42.55
2023-09-02T08:56:24.498Z,42.24
2023-09-02T08:58:54.922Z,42.47
2023-09-02T09:01:23.202Z,41.81
2023-09-02T09:03:53.902Z,40.88
2023-09-02T09:06:23.081Z,40.63
2023-09-02T09:08:52.176Z,40.24
2023-09-02T09:11:19.243Z,40.01
2023-09-02T09:13:47.581Z,40.48
2023-09-02T09:16:24.728Z,40.73
2023-09-02T09:18:51.678Z,40.66
2023-09-02T09:21:18.785Z,39.38
2023-09-02T09:23:45.523Z,38.54
2023-09-02T09:26:13.371Z,39.12
2023-09-02T09:28:57.578Z,38.83
2023-09-02T09:31:25.396Z,38.92
2023-09-02T09:33:59.808Z,38.99
2023-09-02T09:36:28.672Z,38.60
2023-09-02T09:39:00.953Z,38.00
2023-09-02T09:41:29.047Z,37.83
2023-09-02T09:44:16.290Z,37.80
2023-09-02T09:46:53.669Z,38.00
2023-09-02T09:49:27.483Z,38.73
2023-09-02T09:52:03.274Z,40.04
2023-09-02T09:54:42.537Z,40.80
2023-09-02T09:57:10.220Z,40.29
2023-09-02T09:59:37.835Z,40.25
2023-09-02T10:02:05.816Z,40.13
2023-09-02T10:04:33.508Z,38.73
2023-09-02T10:07:04.956Z,39.02
2023-09-02T10:09:46.466Z,39.26
2023-09-02T10:12:14.750Z,39.55
2023-09-02T10:14:46.382Z,39.58
2023-09-02T10:17:14.238Z,38.61
2023-09-02T10:19:41.898Z,38.94
2023-09-02T10:22:09.045Z,38.30
2023-09-02T10:24:39.455Z,37.69
2023-09-02T10:27:12.768Z,37.75
2023-09-02T10:29:44.420Z,37.88
2023-09-02T10:32:15.010Z,37.96
2023-09-02T10:34:57.982Z,37.77
2023-09-02T10:37:29.298Z,36.68
2023-09-02T10:40:05.828Z,36.29
2023-09-02T10:42:32.795Z,36.39
2023-09-02T10:45:00.928Z,36.37
2023-09-02T10:47:27.699Z,36.28
2023-09-02T10:49:55.554Z,36.59
2023-09-02T10:52:22.432Z,36.64
2023-09-02T10:55:05.401Z,36.65
2023-09-02T10:57:33.570Z,37.17
2023-09-02T11:00:13.254Z,36.81
2023-09-02T11:02:41.689Z,37.12
2023-09-02T11:05:08.972Z,37.24
2023-09-02T11:07:36.662Z,37.22
2023-09-02T11:10:04.198Z,37.25
2023-09-02T11:12:30.967Z,36.59
2023-09-02T11:15:10.047Z,36.29
2023-09-02T11:17:38.062Z,35.85
2023-09-02T11:20:09.032Z,36.09
2023-09-02T11:22:53.226Z,35.88
2023-09-02T11:25:42.739Z,35.78
2023-09-02T11:28:18.259Z,36.08
2023-09-02T11:31:11.424Z,35.85
2023-09-02T11:33:39.740Z,35.85
2023-09-02T11:36:10.312Z,34.78
2023-09-02T11:38:37.003Z,34.21
2023-09-02T11:41:04.225Z,34.47
2023-09-02T11:43:33.515Z,34.87
2023-09-02T11:46:01.757Z,35.53
2023-09-02T11:48:29.427Z,35.61
2023-09-02T11:50:59.607Z,35.97
2023-09-02T11:53:31.059Z,35.47
2023-09-02T11:55:58.229Z,35.09
2023-09-02T11:58:26.159Z,34.93
2023-09-02T12:00:52.969Z,34.76
2023-09-02T12:03:30.719Z,35.03
2023-09-02T12:06:00.291Z,35.28
2023-09-02T12:08:28.130Z,36.07
2023-09-02T12:10:55.128Z,36.34
2023-09-02T12:13:22.566Z,36.68
2023-09-02T12:15:51.102Z,36.54
2023-09-02T12:18:19.809Z,36.72
2023-09-02T12:20:46.985Z,36.44
2023-09-02T12:23:14.351Z,36.24
2023-09-02T12:25:42.789Z,35.97
2023-09-02T12:28:13.716Z,35.88
2023-09-02T12:30:41.676Z,35.39
2023-09-02T12:33:08.468Z,35.33
2023-09-02T12:35:35.517Z,35.78
2023-09-02T12:38:04.028Z,35.46
2023-09-02T12:40:30.764Z,35.53
2023-09-02T12:42:57.833Z,35.63
2023-09-02T12:45:31.912Z,35.53
2023-09-02T12:48:00.900Z,35.69
2023-09-02T12:50:28.533Z,35.79
2023-09-02T12:53:02.775Z,35.68
2023-09-02T12:55:30.886Z,35.04
2023-09-02T12:57:58.207Z,34.79
2023-09-02T13:00:25.461Z,34.72
2023-09-02T13:02:55.762Z,35.06
2023-09-02T13:05:22.858Z,34.98
2023-09-02T13:07:49.930Z,35.09
2023-09-02T13:10:17.234Z,35.14
2023-09-02T13:12:44.235Z,35.17
2023-09-02T13:15:11.423Z,35.33
2023-09-02T13:17:38.276Z,35.35
2023-09-02T13:20:06.008Z,35.38
2023-09-02T13:22:38.028Z,35.42
2023-09-02T13:25:05.787Z,35.61
2023-09-02T13:27:33.943Z,35.59
2023-09-02T13:30:01.185Z,35.30
2023-09-02T13:32:28.397Z,35.46
2023-09-02T13:35:03.474Z,35.42
2023-09-02T13:37:30.976Z,35.22
2023-09-02T13:40:19.256Z,35.31
2023-09-02T13:42:47.577Z,35.25
2023-09-02T13:45:31.761Z,35.29
2023-09-02T13:48:00.188Z,35.39
2023-09-02T13:50:27.573Z,35.96
2023-09-02T13:52:58.161Z,35.93
2023-09-02T13:55:31.964Z,35.96
2023-09-02T13:58:00.490Z,35.91
2023-09-02T14:00:31.806Z,36.39
2023-09-02T14:03:02.487Z,36.55
2023-09-02T14:05:32.222Z,36.23
2023-09-02T14:08:06.263Z,36.04
2023-09-02T14:10:36.601Z,36.22
2023-09-02T14:13:12.078Z,36.11
2023-09-02T14:15:40.302Z,36.40
2023-09-02T14:18:10.197Z,36.63
2023-09-02T14:20:39.899Z,36.51
2023-09-02T14:23:09.804Z,36.32
2023-09-02T14:25:37.627Z,36.60
2023-09-02T14:28:06.633Z,36.57
2023-09-02T14:30:36.023Z,36.46
2023-09-02T14:33:08.154Z,36.41
2023-09-02T14:35:38.080Z,36.48
2023-09-02T14:38:08.084Z,36.76
2023-09-02T14:40:37.183Z,36.82
2023-09-02T14:43:07.226Z,37.17
2023-09-02T14:45:37.064Z,37.23
2023-09-02T14:48:06.404Z,37.38
2023-09-02T14:50:36.046Z,37.28
2023-09-02T14:53:06.072Z,37.20
2023-09-02T14:55:34.586Z,37.22
2023-09-02T15:07:36.081Z,37.55
2023-09-02T15:10:05.414Z,37.46
2023-09-02T15:12:33.500Z,37.65
2023-09-02T15:15:01.712Z,37.76
2023-09-02T15:17:32.181Z,37.74
2023-09-02T15:20:00.339Z,37.84
2023-09-02T15:22:30.125Z,37.84
2023-09-02T15:24:56.818Z,37.90
2023-09-02T15:27:24.736Z,38.03
2023-09-02T15:29:51.746Z,38.04
2023-09-02T15:32:18.526Z,38.23
2023-09-02T15:34:49.211Z,38.31
2023-09-02T15:37:25.939Z,38.38
2023-09-02T15:39:55.231Z,38.52
2023-09-02T15:42:23.192Z,38.59
2023-09-02T15:44:49.913Z,38.80
2023-09-02T15:47:16.658Z,38.81
2023-09-02T15:49:43.282Z,38.77
2023-09-02T15:52:09.978Z,38.73
2023-09-02T15:54:38.768Z,38.97
2023-09-02T15:57:07.276Z,39.04
2023-09-02T15:59:34.174Z,39.15
2023-09-02T16:02:00.897Z,39.25
2023-09-02T16:04:27.899Z,39.24
2023-09-02T16:06:54.541Z,39.11
2023-09-02T16:09:21.205Z,39.29
2023-09-02T16:11:50.080Z,39.30
2023-09-02T16:14:19.495Z,39.33
2023-09-02T16:16:46.150Z,39.61
2023-09-02T16:19:12.838Z,39.58
2023-09-02T16:21:39.568Z,39.75
2023-09-02T16:24:06.562Z,39.78
2023-09-02T16:26:33.155Z,39.73
2023-09-02T16:29:01.577Z,39.73
2023-09-02T16:31:28.582Z,39.70
2023-09-02T16:33:55.215Z,39.77
2023-09-02T16:36:21.831Z,40.02
2023-09-02T16:38:50.190Z,40.02
2023-09-02T16:41:17.081Z,40.09
2023-09-02T16:43:44.352Z,40.10
2023-09-02T16:46:13.149Z,40.06
2023-09-02T16:48:40.522Z,40.30
2023-09-02T16:51:07.622Z,40.32
2023-09-02T16:53:37.600Z,40.48
2023-09-02T16:56:05.650Z,40.65
2023-09-02T16:58:35.268Z,40.70
2023-09-02T17:01:06.891Z,40.85
2023-09-02T17:03:36.277Z,41.03
2023-09-02T17:06:07.960Z,41.00
2023-09-02T17:08:35.688Z,41.02
2023-09-02T17:11:02.389Z,41.04
2023-09-02T17:13:29.087Z,41.17
2023-09-02T17:15:55.759Z,41.42
2023-09-02T17:18:22.681Z,41.58
2023-09-02T17:20:50.877Z,41.65
2023-09-02T17:23:22.340Z,41.80
2023-09-02T17:25:51.921Z,42.00
2023-09-02T17:28:24.441Z,42.09
2023-09-02T17:31:07.290Z,42.36
2023-09-02T17:33:35.470Z,42.57
2023-09-02T17:36:02.151Z,42.74
2023-09-02T17:38:28.940Z,42.77
2023-09-02T17:40:56.242Z,42.98
2023-09-02T17:43:22.893Z,42.97
2023-09-02T17:45:49.539Z,43.23
2023-09-02T17:48:16.423Z,43.48
2023-09-02T17:50:43.093Z,43.60
2023-09-02T17:53:09.712Z,43.69
2023-09-02T17:55:36.341Z,43.84
2023-09-02T17:58:06.534Z,44.05
2023-09-02T18:00:33.555Z,44.08
2023-09-02T18:03:03.618Z,44.46
2023-09-02T18:05:30.603Z,44.76
2023-09-02T18:07:57.385Z,44.87
2023-09-02T18:10:24.040Z,44.91
2023-09-02T18:12:51.691Z,44.97
2023-09-02T18:15:18.684Z,45.08
2023-09-02T18:17:45.453Z,45.32
2023-09-02T18:20:15.293Z,45.63
2023-09-02T18:22:41.974Z,45.73
2023-09-02T18:25:08.674Z,45.71
2023-09-02T18:27:35.410Z,46.06
2023-09-02T18:30:02.206Z,45.99
2023-09-02T18:32:30.435Z,46.19
2023-09-02T18:35:00.701Z,46.41
2023-09-02T18:37:27.462Z,46.60
2023-09-02T18:39:58.924Z,46.77
2023-09-02T18:42:25.687Z,46.92
2023-09-02T18:44:52.464Z,46.92
2023-09-02T18:47:19.151Z,47.06
2023-09-02T18:49:46.033Z,47.26
2023-09-02T18:52:12.898Z,47.68
2023-09-02T18:54:40.431Z,47.45
2023-09-02T18:57:08.730Z,47.52
2023-09-02T18:59:36.518Z,47.79
2023-09-02T19:02:03.273Z,47.84
2023-09-02T19:04:30.058Z,48.01
2023-09-02T19:06:56.769Z,48.23
2023-09-02T19:09:23.401Z,48.26
2023-09-02T19:11:50.152Z,48.47
2023-09-02T19:14:16.947Z,48.56
2023-09-02T19:16:43.730Z,48.91
2023-09-02T19:19:10.606Z,49.04
2023-09-02T19:21:37.306Z,48.98
2023-09-02T19:24:05.777Z,49.03
2023-09-02T19:26:32.657Z,49.27
2023-09-02T19:28:59.338Z,49.53
2023-09-02T19:31:26.013Z,49.54
2023-09-02T19:33:52.835Z,49.71
2023-09-02T19:36:19.464Z,49.80
2023-09-02T19:38:46.181Z,49.85
2023-09-02T19:41:12.822Z,49.87
2023-09-02T19:43:40.193Z,50.18
2023-09-02T19:46:07.664Z,50.24
2023-09-02T19:48:34.501Z,50.42
2023-09-02T19:51:01.186Z,50.46
2023-09-02T19:53:28.365Z,50.50
2023-09-02T19:55:56.923Z,50.75
2023-09-02T19:58:23.787Z,50.97
2023-09-02T20:00:50.485Z,51.02
2023-09-02T20:03:18.907Z,51.20
2023-09-02T20:05:47.296Z,50.99
2023-09-02T20:08:14.295Z,51.48
2023-09-02T20:10:41.879Z,51.52
2023-09-02T20:13:08.571Z,51.57
2023-09-02T20:15:36.223Z,51.54
2023-09-02T20:18:04.109Z,51.73
2023-09-02T20:20:32.672Z,51.66
2023-09-02T20:23:00.312Z,51.76
2023-09-02T20:25:31.916Z,52.13
2023-09-02T20:27:58.791Z,51.97
2023-09-02T20:30:25.575Z,52.16
2023-09-02T20:32:52.351Z,52.24
2023-09-02T20:35:19.065Z,52.32
2023-09-02T20:37:45.872Z,52.48
2023-09-02T20:40:12.941Z,52.38
2023-09-02T20:42:39.603Z,52.47
2023-09-02T20:45:06.500Z,52.57
2023-09-02T20:47:33.405Z,52.47
2023-09-02T20:50:01.581Z,52.55
2023-09-02T20:52:28.602Z,52.95
2023-09-02T20:54:55.649Z,53.06
2023-09-02T20:57:22.911Z,53.08
2023-09-02T20:59:51.892Z,53.08
2023-09-02T21:02:19.119Z,53.24
2023-09-02T21:04:48.185Z,53.23
2023-09-02T21:07:15.102Z,53.34
2023-09-02T21:09:41.811Z,53.49
2023-09-02T21:12:10.788Z,53.38
2023-09-02T21:14:37.661Z,53.61
2023-09-02T21:17:04.656Z,53.70
2023-09-02T21:19:35.283Z,53.76
2023-09-02T21:22:02.319Z,54.05
2023-09-02T21:24:28.963Z,54.17
2023-09-02T21:26:58.280Z,54.08
2023-09-02T21:29:25.395Z,54.17
2023-09-02T21:31:52.227Z,53.99
2023-09-02T21:34:18.896Z,54.07
2023-09-02T21:36:46.178Z,54.23
2023-09-02T21:39:12.950Z,54.20
2023-09-02T21:41:39.863Z,54.44
2023-09-02T21:44:06.752Z,54.55
2023-09-02T21:46:34.362Z,54.70
2023-09-02T21:49:01.229Z,54.79
2023-09-02T21:51:28.034Z,54.81
2023-09-02T21:53:56.855Z,54.84
2023-09-02T21:56:23.672Z,54.86
2023-09-02T21:58:50.800Z,54.89
2023-09-02T22:01:19.384Z,55.08
2023-09-02T22:03:46.708Z,55.10
2023-09-02T22:06:15.569Z,55.15
2023-09-02T22:08:44.701Z,55.16
2023-09-02T22:11:12.756Z,55.39
2023-09-02T22:13:39.749Z,55.35
2023-09-02T22:16:06.982Z,55.55
2023-09-02T22:18:33.841Z,55.56
2023-09-02T22:21:01.230Z,55.43
2023-09-02T22:23:33.332Z,55.59
2023-09-02T22:26:04.059Z,55.54
2023-09-02T22:28:37.643Z,55.48
2023-09-02T22:31:05.703Z,55.61
2023-09-02T22:33:35.376Z,55.71
2023-09-02T22:36:03.219Z,56.03
2023-09-02T22:38:52.916Z,56.20
2023-09-02T22:41:21.476Z,56.24
2023-09-02T22:43:48.146Z,56.29
2023-09-02T22:46:17.478Z,56.46
2023-09-02T22:48:44.474Z,56.49
2023-09-02T22:51:11.247Z,56.59
2023-09-02T22:53:40.134Z,56.55
2023-09-02T22:56:15.729Z,56.71
2023-09-02T22:58:42.589Z,56.69
2023-09-02T23:01:12.150Z,56.89
2023-09-02T23:03:39.637Z,56.99
2023-09-02T23:06:10.389Z,56.84
2023-09-02T23:08:39.418Z,57.09
2023-09-02T23:11:06.456Z,56.97
2023-09-02T23:13:33.153Z,57.05
2023-09-02T23:16:07.297Z,57.17
2023-09-02T23:18:34.945Z,57.28
2023-09-02T23:21:18.702Z,57.32
2023-09-02T23:23:48.232Z,57.25
2023-09-02T23:26:18.494Z,57.21
2023-09-02T23:28:45.570Z,57.12
2023-09-02T23:31:12.273Z,57.27
2023-09-02T23:33:39.352Z,57.50
2023-09-02T23:36:06.550Z,57.58
2023-09-02T23:38:33.831Z,57.56
2023-09-02T23:41:00.737Z,57.39
2023-09-02T23:43:27.745Z,57.50
2023-09-02T23:45:54.490Z,57.54
2023-09-02T23:48:22.384Z,57.55
2023-09-02T23:50:51.169Z,57.56
2023-09-02T23:53:18.450Z,57.48
2023-09-02T23:55:47.199Z,57.61
2023-09-02T23:58:13.932Z,57.87
